Time;durP1;ratioP1;P1;durP2;ratioP2;P2;SDS_P1;SDS_P2;PMS_P1;PMS_P2;Temp;Humidity;BMP_temperature;BMP_pressure;BME280_temperature;BME280_humidity;BME280_pressure;Samples;Min_cycle;Max_cycle;Signal;HPM_P1;HPM_P2
2022/12/04 00:02:14;;;;;;;17.27;10.43;;;;;;;;;;4371911;32;68374;-67
2022/12/04 00:05:02;;;;;;;19.90;10.75;;;;;;;;;;4383098;32;59428;-65
2022/12/04 00:07:48;;;;;;;23.85;13.88;;;;;;;;;;4383451;32;70513;-64
2022/12/04 00:10:35;;;;;;;16.05;10.10;;;;;;;;;;4384627;32;68267;-65
2022/12/04 00:13:22;;;;;;;13.20;8.40;;;;;;;;;;4384286;32;66806;-66
2022/12/04 00:16:11;;;;;;;11.38;7.40;;;;;;;;;;4372599;32;71675;-65
2022/12/04 00:18:58;;;;;;;12.73;7.25;;;;;;;;;;4362012;32;66075;-65
2022/12/04 00:21:45;;;;;;;11.45;7.40;;;;;;;;;;4383135;32;67193;-66
2022/12/04 00:24:32;;;;;;;12.50;7.82;;;;;;;;;;4372409;32;66991;-64
2022/12/04 00:27:19;;;;;;;18.00;8.68;;;;;;;;;;4372417;32;71762;-64
2022/12/04 00:30:06;;;;;;;;;;;;;;;;;;4383282;32;64918;-64
2022/12/04 00:32:52;;;;;;;14.32;8.85;;;;;;;;;;4382758;32;68211;-65
2022/12/04 00:35:39;;;;;;;19.08;10.90;;;;;;;;;;4383244;32;59861;-65
2022/12/04 00:38:26;;;;;;;15.38;8.50;;;;;;;;;;4382962;32;70903;-64
2022/12/04 00:41:15;;;;;;;13.20;7.35;;;;;;;;;;4372847;32;68256;-64
2022/12/04 00:44:02;;;;;;;15.98;8.88;;;;;;;;;;4372515;32;66806;-65
2022/12/04 00:46:48;;;;;;;13.38;7.40;;;;;;;;;;4382968;32;70795;-64
2022/12/04 00:49:35;;;;;;;11.93;7.40;;;;;;;;;;4372298;32;70806;-64
2022/12/04 00:52:22;;;;;;;;;;;;;;;;;;4382695;32;69770;-65
2022/12/04 00:55:09;;;;;;;18.20;8.95;;;;;;;;;;4382690;32;67510;-65
2022/12/04 00:57:55;;;;;;;;;;;;;;;;;;4372200;32;71434;-64
2022/12/04 01:00:42;;;;;;;40.20;27.55;;;;;;;;;;4372216;32;65340;-65
2022/12/04 01:03:28;;;;;;;16.65;11.75;;;;;;;;;;4382427;32;68114;-65
2022/12/04 01:06:28;;;;;;;17.05;10.52;;;;;;;;;;4382796;32;59251;-65
2022/12/04 01:09:15;;;;;;;18.42;10.70;;;;;;;;;;4371045;32;70366;-65
2022/12/04 01:12:02;;;;;;;27.50;15.23;;;;;;;;;;4371241;32;68939;-65
2022/12/04 01:14:48;;;;;;;20.08;12.20;;;;;;;;;;4382593;32;67109;-64
2022/12/04 01:17:35;;;;;;;18.70;11.63;;;;;;;;;;4371003;32;61404;-65
2022/12/04 01:20:21;;;;;;;16.92;10.93;;;;;;;;;;4382127;32;69295;-64
2022/12/04 01:23:08;;;;;;;21.85;12.30;;;;;;;;;;4370929;32;68851;-65
2022/12/04 01:25:56;;;;;;;18.05;8.77;;;;;;;;;;4360595;32;68133;-64
2022/12/04 01:28:43;;;;;;;12.40;8.00;;;;;;;;;;4371460;32;70853;-64
2022/12/04 01:31:30;;;;;;;13.85;7.03;;;;;;;;;;4382227;32;65957;-64
2022/12/04 01:34:17;;;;;;;16.27;8.77;;;;;;;;;;4360226;32;67494;-64
2022/12/04 01:37:03;;;;;;;12.88;6.65;;;;;;;;;;4371704;32;60086;-65
2022/12/04 01:39:50;;;;;;;13.25;6.97;;;;;;;;;;4383493;32;71754;-64
2022/12/04 01:42:36;;;;;;;13.25;7.50;;;;;;;;;;4371477;32;64925;-67
2022/12/04 01:45:42;;;;;;;13.68;7.28;;;;;;;;;;4371455;32;68007;-64
2022/12/04 01:48:36;;;;;;;11.30;6.75;;;;;;;;;;4371869;32;60409;-65
2022/12/04 01:51:30;;;;;;;11.60;6.95;;;;;;;;;;4371224;32;69418;-64
2022/12/04 01:54:28;;;;;;;10.18;7.22;;;;;;;;;;4381788;32;69219;-65
2022/12/04 01:57:21;;;;;;;10.85;7.35;;;;;;;;;;4371378;32;67365;-65
2022/12/04 02:00:13;;;;;;;13.18;7.25;;;;;;;;;;4381939;32;71749;-66
2022/12/04 02:03:00;;;;;;;11.48;7.30;;;;;;;;;;4371702;32;65693;-65
2022/12/04 02:05:46;;;;;;;10.98;6.87;;;;;;;;;;4383060;32;69293;-64
2022/12/04 02:08:33;;;;;;;;;;;;;;;;;;4370910;32;67202;-65
2022/12/04 02:11:49;;;;;;;11.18;7.78;;;;;;;;;;4381814;32;71827;-65
2022/12/04 02:14:50;;;;;;;10.85;6.97;;;;;;;;;;4360470;32;64975;-65
2022/12/04 02:17:59;;;;;;;10.38;6.65;;;;;;;;;;4381803;32;68126;-64
2022/12/04 02:21:10;;;;;;;11.23;8.23;;;;;;;;;;4371207;32;60299;-64
2022/12/04 02:24:28;;;;;;;14.40;9.00;;;;;;;;;;4381472;32;69635;-63
2022/12/04 02:27:39;;;;;;;15.35;9.73;;;;;;;;;;4382619;32;69303;-65
2022/12/04 02:30:27;;;;;;;13.13;8.55;;;;;;;;;;4382894;32;67811;-64
2022/12/04 02:33:25;;;;;;;15.10;9.57;;;;;;;;;;4371077;32;60355;-64
2022/12/04 02:36:18;;;;;;;12.10;7.82;;;;;;;;;;4382631;32;70488;-64
2022/12/04 02:39:26;;;;;;;11.25;7.47;;;;;;;;;;4370782;32;69143;-65
2022/12/04 02:42:30;;;;;;;;;;;;;;;;;;4381831;32;67314;-65
2022/12/04 02:45:21;;;;;;;9.90;7.15;;;;;;;;;;4370875;32;71139;-65
2022/12/04 02:48:08;;;;;;;8.75;6.80;;;;;;;;;;4381464;32;65917;-64
2022/12/04 02:50:56;;;;;;;11.70;7.15;;;;;;;;;;4381493;32;68159;-65
2022/12/04 02:54:11;;;;;;;15.07;7.35;;;;;;;;;;4381570;32;59313;-65
2022/12/04 02:57:00;;;;;;;14.30;8.63;;;;;;;;;;4381314;32;71506;-65
2022/12/04 02:59:49;;;;;;;14.07;8.05;;;;;;;;;;4381330;32;64552;-65
2022/12/04 03:02:45;;;;;;;12.60;8.02;;;;;;;;;;4370928;32;68158;-66
2022/12/04 03:06:06;;;;;;;15.90;8.40;;;;;;;;;;4380920;32;60883;-65
2022/12/04 03:08:58;;;;;;;21.12;9.85;;;;;;;;;;4382633;32;71322;-65
2022/12/04 03:11:51;;;;;;;25.88;16.05;;;;;;;;;;4369814;32;69840;-65
2022/12/04 03:14:42;;;;;;;20.25;11.88;;;;;;;;;;4380995;32;66862;-64
2022/12/04 03:17:40;;;;;;;24.52;13.95;;;;;;;;;;4381313;32;70799;-64
2022/12/04 03:20:28;;;;;;;18.77;13.07;;;;;;;;;;4381336;32;66000;-64
2022/12/04 03:23:25;;;;;;;22.05;15.00;;;;;;;;;;4381097;32;69136;-64
2022/12/04 03:26:35;;;;;;;23.98;15.82;;;;;;;;;;4381034;32;67992;-65
2022/12/04 03:29:26;;;;;;;22.65;12.32;;;;;;;;;;4380374;32;72434;-64
2022/12/04 03:32:13;;;;;;;21.50;11.73;;;;;;;;;;4369529;32;66962;-64
2022/12/04 03:35:37;;;;;;;17.60;10.95;;;;;;;;;;4380950;32;67909;-65
2022/12/04 03:38:42;;;;;;;21.45;11.88;;;;;;;;;;4358099;32;60245;-64
2022/12/04 03:41:47;;;;;;;22.48;11.00;;;;;;;;;;4372409;32;71746;-64
2022/12/04 03:44:45;;;;;;;14.82;8.82;;;;;;;;;;4383459;32;68150;-65
2022/12/04 03:47:42;;;;;;;16.42;7.80;;;;;;;;;;4361446;32;68275;-66
2022/12/04 03:50:33;;;;;;;15.63;8.50;;;;;;;;;;4383227;32;60013;-66
2022/12/04 03:53:25;;;;;;;14.20;8.15;;;;;;;;;;4384724;32;69687;-64
2022/12/04 03:56:27;;;;;;;13.30;8.00;;;;;;;;;;4383265;32;68305;-66
2022/12/04 03:59:25;;;;;;;14.73;8.00;;;;;;;;;;4372802;32;67723;-65
2022/12/04 04:02:15;;;;;;;17.62;12.10;;;;;;;;;;4372546;32;70542;-65
2022/12/04 04:05:03;;;;;;;15.02;10.27;;;;;;;;;;4383556;32;65808;-65
2022/12/04 04:08:23;;;;;;;22.70;17.48;;;;;;;;;;4383440;32;67012;-64
2022/12/04 04:11:17;;;;;;;18.40;11.93;;;;;;;;;;4374444;32;60477;-64
2022/12/04 04:26:55;;;;;;;26.25;16.30;;;;;;;;;;4373794;32;71473;-66
2022/12/04 04:29:43;;;;;;;20.98;13.15;;;;;;;;;;4374064;32;68847;-64
2022/12/04 04:32:45;;;;;;;24.08;12.98;;;;;;;;;;4383138;32;67604;-65
2022/12/04 04:35:36;;;;;;;18.00;11.05;;;;;;;;;;4382953;32;71577;-64
2022/12/04 04:38:25;;;;;;;21.05;11.88;;;;;;;;;;4384598;32;64556;-65
2022/12/04 04:41:18;;;;;;;14.00;9.07;;;;;;;;;;4384485;32;67022;-64
2022/12/04 04:44:15;;;;;;;22.90;10.98;;;;;;;;;;4372257;32;66782;-64
2022/12/04 04:47:05;;;;;;;15.02;9.48;;;;;;;;;;4382720;32;71462;-64
2022/12/04 04:49:52;;;;;;;16.40;10.07;;;;;;;;;;4372147;32;66009;-64
2022/12/04 04:52:41;;;;;;;19.90;10.88;;;;;;;;;;4371640;32;67480;-64
2022/12/04 04:55:33;;;;;;;21.30;10.65;;;;;;;;;;4383042;32;60223;-64
2022/12/04 04:58:20;;;;;;;21.02;11.85;;;;;;;;;;4382565;32;69614;-64
2022/12/04 05:01:12;;;;;;;21.80;11.73;;;;;;;;;;4373218;32;69619;-64
2022/12/04 05:03:59;;;;;;;23.02;11.82;;;;;;;;;;4383815;32;67601;-65
2022/12/04 05:06:47;;;;;;;23.60;11.45;;;;;;;;;;4382972;32;60600;-65
2022/12/04 05:09:34;;;;;;;26.75;12.07;;;;;;;;;;4382384;32;70782;-65
2022/12/04 05:12:21;;;;;;;25.90;12.25;;;;;;;;;;4382272;32;68296;-65
2022/12/04 05:15:08;;;;;;;20.30;10.80;;;;;;;;;;4360603;32;68728;-65
2022/12/04 05:17:55;;;;;;;28.35;12.88;;;;;;;;;;4382683;32;71630;-64
2022/12/04 05:20:41;;;;;;;17.58;10.40;;;;;;;;;;4372312;32;64980;-64
2022/12/04 05:23:28;;;;;;;15.50;8.20;;;;;;;;;;4382413;32;67912;-64
2022/12/04 05:26:14;;;;;;;16.42;9.80;;;;;;;;;;4383812;32;60208;-64
2022/12/04 05:29:01;;;;;;;17.08;10.27;;;;;;;;;;4383446;32;70544;-64
2022/12/04 05:31:47;;;;;;;;;;;;;;;;;;4383632;32;66118;-64
2022/12/04 05:34:34;;;;;;;21.10;12.25;;;;;;;;;;4381770;32;68001;-65
2022/12/04 05:37:21;;;;;;;21.10;11.63;;;;;;;;;;4382431;32;60233;-65
2022/12/04 05:40:08;;;;;;;29.37;16.83;;;;;;;;;;4371668;32;70765;-64
2022/12/04 05:42:55;;;;;;;29.48;16.70;;;;;;;;;;4371037;32;70024;-64
2022/12/04 05:45:42;;;;;;;25.48;14.93;;;;;;;;;;4382039;32;66718;-64
2022/12/04 05:48:28;;;;;;;26.17;14.32;;;;;;;;;;4381477;32;72289;-67
2022/12/04 05:51:15;;;;;;;30.88;16.20;;;;;;;;;;4383339;32;64819;-65
2022/12/04 05:54:01;;;;;;;;;;;;;;;;;;4382642;32;66945;-66
2022/12/04 05:56:48;;;;;;;30.00;15.00;;;;;;;;;;4372012;32;67605;-65
2022/12/04 05:59:35;;;;;;;27.23;15.32;;;;;;;;;;4381962;32;70901;-65
2022/12/04 06:02:21;;;;;;;29.23;17.20;;;;;;;;;;4381682;32;64862;-64
2022/12/04 06:05:08;;;;;;;36.22;20.88;;;;;;;;;;4370893;32;68028;-64
2022/12/04 06:07:55;;;;;;;29.45;19.70;;;;;;;;;;4382300;32;60181;-65
2022/12/04 06:10:41;;;;;;;37.00;21.50;;;;;;;;;;4370746;32;71600;-65
2022/12/04 06:13:28;;;;;;;35.75;23.10;;;;;;;;;;4370546;32;68997;-66
2022/12/04 06:16:16;;;;;;;31.35;22.95;;;;;;;;;;4381787;32;67833;-65
2022/12/04 06:19:09;;;;;;;28.50;18.85;;;;;;;;;;4382126;32;70758;-64
2022/12/04 06:21:55;;;;;;;23.08;14.07;;;;;;;;;;4381991;32;69607;-64
2022/12/04 06:24:42;;;;;;;;;;;;;;;;;;4383538;32;68297;-65
2022/12/04 06:27:29;;;;;;;21.42;11.65;;;;;;;;;;4383578;32;67551;-64
2022/12/04 06:30:15;;;;;;;19.77;11.57;;;;;;;;;;4381767;32;72313;-65
2022/12/04 06:33:02;;;;;;;19.37;11.68;;;;;;;;;;4383590;32;66234;-64
2022/12/04 06:35:56;;;;;;;19.35;10.00;;;;;;;;;;4382834;32;66983;-67
2022/12/04 06:38:43;;;;;;;15.95;9.20;;;;;;;;;;4382327;32;60297;-64
2022/12/04 06:41:30;;;;;;;18.08;9.60;;;;;;;;;;4371987;32;70490;-65
2022/12/04 06:44:17;;;;;;;15.98;10.48;;;;;;;;;;4373433;32;69265;-65
2022/12/04 06:47:04;;;;;;;18.48;10.93;;;;;;;;;;4384447;32;68422;-64
2022/12/04 06:49:50;;;;;;;21.23;11.93;;;;;;;;;;4383574;32;59621;-64
2022/12/04 06:52:37;;;;;;;27.75;15.73;;;;;;;;;;4370691;32;70617;-64
2022/12/04 06:55:24;;;;;;;29.77;17.35;;;;;;;;;;4381676;32;69465;-65
2022/12/04 06:58:10;;;;;;;29.27;17.87;;;;;;;;;;4381312;32;67556;-64
2022/12/04 07:00:57;;;;;;;28.87;17.73;;;;;;;;;;4382506;32;71809;-66
2022/12/04 07:03:44;;;;;;;24.80;15.75;;;;;;;;;;4370188;32;67063;-65
2022/12/04 07:06:34;;;;;;;23.30;12.50;;;;;;;;;;4381359;32;68061;-65
2022/12/04 07:09:20;;;;;;;25.58;13.38;;;;;;;;;;4381641;32;60758;-66
2022/12/04 07:12:07;;;;;;;17.55;11.23;;;;;;;;;;4380990;32;71870;-64
2022/12/04 07:14:53;;;;;;;15.55;9.23;;;;;;;;;;4382906;32;65705;-64
2022/12/04 07:17:40;;;;;;;15.95;8.70;;;;;;;;;;4383562;32;68465;-65
2022/12/04 07:20:27;;;;;;;12.13;7.95;;;;;;;;;;4383696;32;61101;-64
2022/12/04 07:23:14;;;;;;;12.85;7.25;;;;;;;;;;4383978;32;69821;-65
2022/12/04 07:26:08;;;;;;;12.18;7.57;;;;;;;;;;4383894;32;69002;-66
2022/12/04 07:28:55;;;;;;;10.35;6.35;;;;;;;;;;4373474;32;66590;-64
2022/12/04 07:31:43;;;;;;;10.43;6.15;;;;;;;;;;4373288;32;71698;-65
2022/12/04 07:34:30;;;;;;;11.63;6.43;;;;;;;;;;4372180;32;71317;-66
2022/12/04 07:37:16;;;;;;;10.95;6.85;;;;;;;;;;4388405;32;69477;-65
2022/12/04 07:40:04;;;;;;;14.70;7.07;;;;;;;;;;4384283;32;67582;-66
2022/12/04 07:42:51;;;;;;;3.90;2.47;;;;;;;;;;4373420;32;70052;-65
2022/12/04 07:45:38;;;;;;;4.78;2.42;;;;;;;;;;4373559;32;64938;-65
2022/12/04 07:48:24;;;;;;;10.65;6.28;;;;;;;;;;4383236;32;67576;-66
2022/12/04 07:51:15;;;;;;;9.25;5.78;;;;;;;;;;4385974;32;59870;-64
2022/12/04 07:54:02;;;;;;;12.35;6.97;;;;;;;;;;4373450;32;70817;-66
2022/12/04 07:56:48;;;;;;;2.05;1.27;;;;;;;;;;4373273;32;68438;-66
2022/12/04 07:59:35;;;;;;;1.30;1.17;;;;;;;;;;4372892;32;68418;-65
2022/12/04 08:02:22;;;;;;;;;;;;;;;;;;4386155;32;59061;-65
2022/12/04 08:05:09;;;;;;;12.80;7.25;;;;;;;;;;4386725;32;70465;-64
2022/12/04 08:07:55;;;;;;;12.23;7.90;;;;;;;;;;4392436;32;69171;-66
2022/12/04 08:10:42;;;;;;;12.52;8.23;;;;;;;;;;4370430;32;66809;-65
2022/12/04 08:13:29;;;;;;;15.20;7.90;;;;;;;;;;4380878;32;71743;-68
2022/12/04 08:16:15;;;;;;;13.32;7.82;;;;;;;;;;4388978;32;64710;-64
2022/12/04 08:19:02;;;;;;;15.02;8.10;;;;;;;;;;4393375;32;67013;-65
2022/12/04 08:21:49;;;;;;;13.18;8.23;;;;;;;;;;4393508;32;59299;-66
2022/12/04 08:24:36;;;;;;;12.95;8.27;;;;;;;;;;4370925;32;72066;-65
2022/12/04 08:27:23;;;;;;;13.73;8.00;;;;;;;;;;4393062;32;65218;-65
2022/12/04 08:30:09;;;;;;;12.52;7.97;;;;;;;;;;4392665;32;67800;-64
2022/12/04 08:32:56;;;;;;;11.98;7.22;;;;;;;;;;4377770;32;59550;-69
2022/12/04 08:35:43;;;;;;;13.80;7.37;;;;;;;;;;4376519;32;70411;-67
2022/12/04 08:38:29;;;;;;;12.15;8.00;;;;;;;;;;4391731;32;68209;-66
2022/12/04 08:41:18;;;;;;;11.18;7.25;;;;;;;;;;4380601;32;68183;-64
2022/12/04 08:44:05;;;;;;;12.88;7.70;;;;;;;;;;4379995;32;70393;-67
2022/12/04 08:46:51;;;;;;;13.52;7.53;;;;;;;;;;4391089;32;64365;-65
2022/12/04 08:49:38;;;;;;;12.35;8.23;;;;;;;;;;4380498;32;69959;-65
2022/12/04 08:52:24;;;;;;;12.43;8.10;;;;;;;;;;4380910;32;68124;-65
2022/12/04 08:55:11;;;;;;;12.98;8.60;;;;;;;;;;4389176;32;72586;-66
2022/12/04 08:57:58;;;;;;;15.07;8.93;;;;;;;;;;4390972;32;65938;-65
2022/12/04 09:00:45;;;;;;;13.93;7.85;;;;;;;;;;4378939;32;67031;-66
2022/12/04 09:03:31;;;;;;;;;;;;;;;;;;4377077;32;60984;-65
2022/12/04 09:06:19;;;;;;;10.68;7.22;;;;;;;;;;4394105;32;68957;-65
2022/12/04 09:09:05;;;;;;;11.75;7.25;;;;;;;;;;4361373;32;68666;-64
2022/12/04 09:11:52;;;;;;;12.02;6.07;;;;;;;;;;4371312;32;65608;-65
2022/12/04 09:14:38;;;;;;;12.13;6.55;;;;;;;;;;4371640;32;61323;-66
2022/12/04 09:17:25;;;;;;;12.75;6.45;;;;;;;;;;4371714;32;70586;-64
2022/12/04 09:20:13;;;;;;;11.48;6.97;;;;;;;;;;4382480;32;69057;-65
2022/12/04 09:23:00;;;;;;;10.60;6.40;;;;;;;;;;4382409;32;66651;-64
2022/12/04 09:25:47;;;;;;;11.27;6.80;;;;;;;;;;4360440;32;71559;-64
2022/12/04 09:28:34;;;;;;;12.07;6.10;;;;;;;;;;4371758;32;64889;-65
2022/12/04 09:31:22;;;;;;;12.32;6.80;;;;;;;;;;4381526;32;68438;-64
2022/12/04 09:34:08;;;;;;;9.70;6.53;;;;;;;;;;4371880;32;60190;-64
2022/12/04 09:36:55;;;;;;;12.45;7.03;;;;;;;;;;4371051;32;69644;-65
2022/12/04 09:39:42;;;;;;;11.45;7.12;;;;;;;;;;4371826;32;66006;-65
2022/12/04 09:42:44;;;;;;;9.70;6.55;;;;;;;;;;4371848;32;66946;-66
2022/12/04 09:45:40;;;;;;;11.30;6.93;;;;;;;;;;4382387;32;59435;-65
2022/12/04 09:48:35;;;;;;;13.93;6.97;;;;;;;;;;4382000;32;70763;-68
2022/12/04 09:51:23;;;;;;;11.77;6.55;;;;;;;;;;4381960;32;68370;-65
2022/12/04 09:54:32;;;;;;;9.77;6.25;;;;;;;;;;4371574;32;67826;-65
2022/12/04 09:57:37;;;;;;;9.77;6.12;;;;;;;;;;4381793;32;70838;-65
2022/12/04 10:00:25;;;;;;;10.48;6.35;;;;;;;;;;4371415;32;66057;-64
2022/12/04 10:03:17;;;;;;;10.10;5.75;;;;;;;;;;4371074;32;68867;-66
2022/12/04 10:06:36;;;;;;;6.82;4.30;;;;;;;;;;4360755;32;66824;-66
2022/12/04 10:09:41;;;;;;;8.93;4.78;;;;;;;;;;4369531;32;71438;-64
2022/12/04 10:13:02;;;;;;;11.57;5.20;;;;;;;;;;4371165;32;65774;-65
2022/12/04 10:16:05;;;;;;;8.77;4.72;;;;;;;;;;4381166;32;68464;-65
2022/12/04 10:19:13;;;;;;;7.95;4.85;;;;;;;;;;4383094;32;59842;-65
2022/12/04 10:22:25;;;;;;;8.85;5.32;;;;;;;;;;4370960;32;69727;-65
2022/12/04 10:25:15;;;;;;;10.25;4.53;;;;;;;;;;4370921;32;68522;-65
2022/12/04 10:28:17;;;;;;;8.40;4.85;;;;;;;;;;4382828;32;67737;-64
2022/12/04 10:31:05;;;;;;;9.93;4.62;;;;;;;;;;4381708;32;59035;-69
2022/12/04 10:34:01;;;;;;;8.48;5.00;;;;;;;;;;4360624;32;69532;-65
2022/12/04 10:36:53;;;;;;;10.68;5.15;;;;;;;;;;4381463;32;68370;-65
2022/12/04 10:39:55;;;;;;;6.70;4.72;;;;;;;;;;4381584;32;67575;-64
2022/12/04 10:42:52;;;;;;;7.07;4.50;;;;;;;;;;4369823;32;71420;-65
2022/12/04 10:45:39;;;;;;;8.57;4.60;;;;;;;;;;4360466;32;65974;-65
2022/12/04 10:48:34;;;;;;;8.55;4.55;;;;;;;;;;4383574;32;67802;-65
2022/12/04 10:51:22;;;;;;;8.93;5.25;;;;;;;;;;4385795;32;59375;-65
2022/12/04 10:54:23;;;;;;;8.77;5.03;;;;;;;;;;4372828;32;71023;-65
2022/12/04 10:57:12;;;;;;;7.35;4.82;;;;;;;;;;4384055;32;65082;-65
2022/12/04 10:59:59;;;;;;;10.98;5.57;;;;;;;;;;4384445;32;66825;-65
2022/12/04 11:02:45;;;;;;;8.15;4.95;;;;;;;;;;4384415;32;59498;-65
2022/12/04 11:05:39;;;;;;;8.50;5.18;;;;;;;;;;4384101;32;70550;-65
2022/12/04 11:08:36;;;;;;;7.40;4.72;;;;;;;;;;4362183;32;68896;-65
2022/12/04 11:11:32;;;;;;;8.87;5.63;;;;;;;;;;4384292;32;67562;-65
2022/12/04 11:14:21;;;;;;;9.02;4.97;;;;;;;;;;4373265;32;71828;-64
2022/12/04 11:17:12;;;;;;;9.80;5.05;;;;;;;;;;4375026;32;66332;-65
2022/12/04 11:20:08;;;;;;;6.53;4.30;;;;;;;;;;4379888;32;68452;-64
2022/12/04 11:22:57;;;;;;;7.95;4.53;;;;;;;;;;4391768;32;66681;-66
2022/12/04 11:25:52;;;;;;;7.85;4.47;;;;;;;;;;4366332;32;70095;-65
2022/12/04 11:28:44;;;;;;;8.13;4.93;;;;;;;;;;4376684;32;66012;-64
2022/12/04 11:31:31;;;;;;;7.70;4.90;;;;;;;;;;4384453;32;67977;-65
2022/12/04 11:34:24;;;;;;;8.88;4.62;;;;;;;;;;4373333;32;60145;-66
2022/12/04 11:37:40;;;;;;;8.85;5.55;;;;;;;;;;4372378;32;71048;-66
2022/12/04 11:40:27;;;;;;;12.27;5.35;;;;;;;;;;4382449;32;69598;-65
2022/12/04 11:43:16;;;;;;;9.75;5.45;;;;;;;;;;4383585;32;67729;-65
2022/12/04 11:46:05;;;;;;;9.25;5.70;;;;;;;;;;4383782;32;70862;-65
2022/12/04 11:48:52;;;;;;;8.73;5.43;;;;;;;;;;4373041;32;70530;-66
2022/12/04 11:52:00;;;;;;;12.18;6.37;;;;;;;;;;4383402;32;68491;-66
2022/12/04 11:55:22;;;;;;;9.98;6.32;;;;;;;;;;4384967;32;67638;-66
2022/12/04 11:58:43;;;;;;;8.82;5.55;;;;;;;;;;4384530;32;71864;-64
2022/12/04 12:01:53;;;;;;;10.48;5.32;;;;;;;;;;4372181;32;65823;-64
2022/12/04 12:05:37;;;;;;;9.68;5.60;;;;;;;;;;4383315;32;68007;-65
2022/12/04 12:08:48;;;;;;;11.43;5.72;;;;;;;;;;4341496;32;59186;-66
2022/12/04 12:12:01;;;;;;;10.35;6.03;;;;;;;;;;4341419;32;70654;-66
2022/12/04 12:15:10;;;;;;;11.73;6.00;;;;;;;;;;4383261;32;69296;-65
2022/12/04 12:18:44;;;;;;;12.73;6.43;;;;;;;;;;4384267;32;67873;-65
2022/12/04 12:21:53;;;;;;;14.65;6.72;;;;;;;;;;4348574;32;61162;-66
2022/12/04 12:24:43;;;;;;;10.43;6.15;;;;;;;;;;4356209;32;69713;-66
2022/12/04 12:27:49;;;;;;;9.43;5.60;;;;;;;;;;4384237;32;69562;-65
2022/12/04 12:31:13;;;;;;;10.85;5.85;;;;;;;;;;4372467;32;67525;-64
2022/12/04 12:34:29;;;;;;;11.05;5.85;;;;;;;;;;4395052;32;72306;-64
2022/12/04 12:37:28;;;;;;;10.18;6.03;;;;;;;;;;4371259;32;66975;-65
2022/12/04 12:40:21;;;;;;;10.93;6.75;;;;;;;;;;4372323;32;68029;-65
2022/12/04 12:43:31;;;;;;;12.48;6.40;;;;;;;;;;4384158;32;67582;-64
2022/12/04 12:46:33;;;;;;;10.30;6.78;;;;;;;;;;4384151;32;71362;-66
2022/12/04 12:49:30;;;;;;;10.45;6.68;;;;;;;;;;4360795;32;65794;-66
2022/12/04 12:52:43;;;;;;;11.80;6.50;;;;;;;;;;4382947;32;68388;-65
2022/12/04 12:55:53;;;;;;;11.40;7.30;;;;;;;;;;4371558;32;60020;-65
2022/12/04 12:58:53;;;;;;;12.65;8.55;;;;;;;;;;4360327;32;71569;-64
2022/12/04 13:01:56;;;;;;;12.43;7.10;;;;;;;;;;4382715;32;69296;-64
2022/12/04 13:04:44;;;;;;;13.73;7.87;;;;;;;;;;4382661;32;67679;-64
2022/12/04 13:07:43;;;;;;;11.18;7.37;;;;;;;;;;4371582;32;72761;-64
2022/12/04 13:10:41;;;;;;;14.48;7.62;;;;;;;;;;4370919;32;72039;-64
2022/12/04 13:13:30;;;;;;;13.73;7.75;;;;;;;;;;4381682;32;69286;-65
2022/12/04 13:16:37;;;;;;;10.93;7.05;;;;;;;;;;4370998;32;68226;-65
2022/12/04 13:20:05;;;;;;;14.23;7.55;;;;;;;;;;4371625;32;71568;-64
2022/12/04 13:23:13;;;;;;;13.35;8.10;;;;;;;;;;4381009;32;65660;-65
2022/12/04 13:26:28;;;;;;;15.75;8.70;;;;;;;;;;4382250;32;67901;-65
2022/12/04 13:29:23;;;;;;;21.02;12.35;;;;;;;;;;4383650;32;60042;-64
2022/12/04 13:32:50;;;;;;;24.25;15.73;;;;;;;;;;4381909;32;70696;-64
2022/12/04 13:35:55;;;;;;;22.60;13.13;;;;;;;;;;4382041;32;69336;-65
2022/12/04 13:38:47;;;;;;;26.33;16.80;;;;;;;;;;4383467;32;66933;-64
2022/12/04 13:41:36;;;;;;;24.00;15.65;;;;;;;;;;4383788;32;59222;-64
2022/12/04 13:44:24;;;;;;;26.02;15.00;;;;;;;;;;4361022;32;69797;-64
2022/12/04 13:47:30;;;;;;;19.67;11.82;;;;;;;;;;4382503;32;69272;-64
2022/12/04 13:50:33;;;;;;;21.25;12.95;;;;;;;;;;4371124;32;68168;-64
2022/12/04 13:53:36;;;;;;;18.77;11.57;;;;;;;;;;4381854;32;71886;-66
2022/12/04 13:56:28;;;;;;;13.07;8.80;;;;;;;;;;4381774;32;64960;-64
2022/12/04 13:59:29;;;;;;;22.20;12.48;;;;;;;;;;4370551;32;67716;-65
2022/12/04 14:02:31;;;;;;;21.23;13.07;;;;;;;;;;4382011;32;60205;-64
2022/12/04 14:05:29;;;;;;;14.80;10.15;;;;;;;;;;4371228;32;72141;-64
2022/12/04 14:08:19;;;;;;;13.00;8.32;;;;;;;;;;4359932;32;67231;-64
2022/12/04 14:11:12;;;;;;;10.88;7.28;;;;;;;;;;4370313;32;68241;-64
2022/12/04 14:13:59;;;;;;;10.25;6.95;;;;;;;;;;4370647;32;60459;-65
2022/12/04 14:16:48;;;;;;;12.73;7.30;;;;;;;;;;4382850;32;70911;-65
2022/12/04 14:19:37;;;;;;;13.05;7.15;;;;;;;;;;4360068;32;69963;-65
2022/12/04 14:22:33;;;;;;;13.80;7.55;;;;;;;;;;4371213;32;67646;-65
2022/12/04 14:25:46;;;;;;;9.73;6.90;;;;;;;;;;4381591;32;71571;-64
2022/12/04 14:28:38;;;;;;;12.55;7.57;;;;;;;;;;4381455;32;66756;-66
2022/12/04 14:31:38;;;;;;;11.73;7.60;;;;;;;;;;4370634;32;69157;-66
2022/12/04 14:34:33;;;;;;;12.35;7.20;;;;;;;;;;4381154;32;67249;-64
2022/12/04 14:37:28;;;;;;;14.93;8.15;;;;;;;;;;4381587;32;70676;-65
2022/12/04 14:40:23;;;;;;;11.73;8.13;;;;;;;;;;4381506;32;64623;-65
2022/12/04 14:43:27;;;;;;;13.68;7.87;;;;;;;;;;4381614;32;66961;-64
2022/12/04 14:46:36;;;;;;;14.57;7.18;;;;;;;;;;4381689;32;60113;-64
2022/12/04 14:49:55;;;;;;;12.70;7.43;;;;;;;;;;4370656;32;70681;-64
2022/12/04 14:52:48;;;;;;;13.77;7.50;;;;;;;;;;4381168;32;69519;-65
2022/12/04 14:55:53;;;;;;;13.35;7.50;;;;;;;;;;4381566;32;67140;-64
2022/12/04 14:58:39;;;;;;;15.27;8.15;;;;;;;;;;4370760;32;60301;-63
2022/12/04 15:04:31;;;;;;;11.18;7.70;;;;;;;;;;3847479;37;43468;-65
2022/12/04 15:07:26;;;;;;;11.15;7.22;;;;;;;;;;4410100;32;59034;-64
2022/12/04 15:13:32;;;;;;;15.77;7.50;;;;;;;;;;4409791;32;69403;-66
2022/12/04 15:16:21;;;;;;;14.82;8.38;;;;;;;;;;4411014;32;67688;-66
2022/12/04 15:19:19;;;;;;;12.45;8.13;;;;;;;;;;4409566;32;70719;-65
2022/12/04 15:22:19;;;;;;;13.52;8.15;;;;;;;;;;4411021;32;66069;-65
2022/12/04 15:25:15;;;;;;;15.93;8.50;;;;;;;;;;4399032;32;67247;-66
2022/12/04 15:28:17;;;;;;;14.55;8.82;;;;;;;;;;4409537;32;59227;-65
2022/12/04 15:31:05;;;;;;;14.35;8.68;;;;;;;;;;4409378;32;70405;-66
2022/12/04 15:33:55;;;;;;;13.50;8.85;;;;;;;;;;4398806;32;66082;-66
2022/12/04 15:36:51;;;;;;;14.18;8.23;;;;;;;;;;4409514;32;66697;-65
2022/12/04 15:39:37;;;;;;;10.82;6.65;;;;;;;;;;4410947;32;59199;-65
2022/12/04 15:42:25;;;;;;;14.18;8.98;;;;;;;;;;4410572;32;70603;-65
2022/12/04 15:45:11;;;;;;;12.98;8.98;;;;;;;;;;4409299;32;69547;-64
2022/12/04 15:47:58;;;;;;;12.07;7.55;;;;;;;;;;4398002;32;67568;-65
2022/12/04 15:50:59;;;;;;;12.45;7.50;;;;;;;;;;4398440;32;71264;-65
2022/12/04 15:53:46;;;;;;;11.32;6.65;;;;;;;;;;4398153;32;65900;-64
2022/12/04 15:56:33;;;;;;;10.65;6.93;;;;;;;;;;4409114;32;68258;-65
2022/12/04 15:59:19;;;;;;;13.68;8.15;;;;;;;;;;4397861;32;68098;-64
2022/12/04 16:02:20;;;;;;;10.65;7.47;;;;;;;;;;4397900;32;71908;-65
2022/12/04 16:05:24;;;;;;;11.57;7.50;;;;;;;;;;4398373;32;65985;-65
2022/12/04 16:08:31;;;;;;;12.10;7.53;;;;;;;;;;4409005;32;67537;-64
2022/12/04 16:11:18;;;;;;;10.30;7.03;;;;;;;;;;4397734;32;61046;-64
2022/12/04 16:14:08;;;;;;;11.57;7.65;;;;;;;;;;4383511;32;71222;-64
2022/12/04 16:16:56;;;;;;;11.27;7.15;;;;;;;;;;4400091;32;68339;-64
2022/12/04 16:19:43;;;;;;;11.95;6.82;;;;;;;;;;4376587;32;67995;-64
2022/12/04 16:22:30;;;;;;;10.68;6.80;;;;;;;;;;4399168;32;60456;-64
2022/12/04 16:25:17;;;;;;;14.55;7.55;;;;;;;;;;4377336;32;70258;-65
2022/12/04 16:28:06;;;;;;;11.57;7.72;;;;;;;;;;4376432;32;68559;-65
2022/12/04 16:30:53;;;;;;;11.75;6.95;;;;;;;;;;4399878;32;67551;-64
2022/12/04 16:33:40;;;;;;;11.75;7.07;;;;;;;;;;4398500;32;70836;-65
2022/12/04 16:36:26;;;;;;;12.85;8.07;;;;;;;;;;4387375;32;67200;-64
2022/12/04 16:39:13;;;;;;;9.75;6.47;;;;;;;;;;4398483;32;67925;-64
2022/12/04 16:41:59;;;;;;;9.85;6.70;;;;;;;;;;4400056;32;60460;-65
2022/12/04 16:44:47;;;;;;;11.60;7.32;;;;;;;;;;4398245;32;70450;-65
2022/12/04 16:47:33;;;;;;;14.90;8.27;;;;;;;;;;4398600;32;65883;-65
2022/12/04 16:50:20;;;;;;;12.82;8.10;;;;;;;;;;4386949;32;68068;-65
2022/12/04 16:53:06;;;;;;;13.98;9.95;;;;;;;;;;4376719;32;60234;-65
2022/12/04 16:55:53;;;;;;;17.40;10.25;;;;;;;;;;4398143;32;69597;-64
2022/12/04 16:58:39;;;;;;;16.87;9.73;;;;;;;;;;4383072;32;68421;-65
2022/12/04 17:01:35;;;;;;;18.23;11.25;;;;;;;;;;4361637;32;65432;-64
2022/12/04 17:04:21;;;;;;;18.95;11.00;;;;;;;;;;4382836;32;71745;-65
2022/12/04 17:07:12;;;;;;;20.62;11.65;;;;;;;;;;4372684;32;64890;-65
2022/12/04 17:09:58;;;;;;;21.67;11.98;;;;;;;;;;4382916;32;66577;-65
2022/12/04 17:12:45;;;;;;;22.20;12.68;;;;;;;;;;4382877;32;67486;-65
2022/12/04 17:15:32;;;;;;;19.95;11.52;;;;;;;;;;4382776;32;71652;-65
2022/12/04 17:18:19;;;;;;;19.42;11.82;;;;;;;;;;4383929;32;64931;-64
2022/12/04 17:21:06;;;;;;;18.37;11.57;;;;;;;;;;4382723;32;67491;-64
2022/12/04 17:23:53;;;;;;;19.33;10.75;;;;;;;;;;4384138;32;59416;-64